Sanford, FL

1:59 PM EST on November 27, 2014 (GMT -0500)
Kaywood Subdivision | Change Station
CLOSE
Current Station
Personal Weather Station
Location: Sanford, FL
Elevation: 59 ft
Nearby Weather Stations

Elev 59 ft 28.79 °N, 81.33 °W | Updated 2 seconds ago

Clear
Clear
62.2 °F
Feels Like 62.2 °F
N
3.0
Wind Variable Wind from NW
Gusts 19.0 mph

Today
High -- | Low -- °F
--% Chance of Precip.
Yesterday
High -- | Low -- °F
Precip. -- in
6:57 AM 5:27 PM
Waxing Crescent, 32% visible
Pressure 30.17 in
Visibility 10.0 miles
Clouds Clear
Dew Point 48 °F
Humidity 59%
Rainfall 0.00 in
Snow Depth Not available.
UV 5 out of 12
Pollen 4.00 out of 12
Air Quality Not available.
Flu Activity Not available.
METAR KSFB 271853Z 31015KT 10SM CLR 20/07 A3017 RMK AO2 SLP216 T02000067

More Conditions Fewer Conditions

Pressure 30.17 in
Visibility 10.0 miles
Clouds Clear
Dew Point 48 °F
Humidity 59%
Rainfall 0.00 in
Snow Depth Not available.
UV 5 out of 12
Pollen 4.00 out of 12
Air Quality Not available.
Flu Activity Not available.
METAR KSFB 271853Z 31015KT 10SM CLR 20/07 A3017 RMK AO2 SLP216 T02000067

More Conditions Fewer Conditions

10-Day Weather Forecast

Almanac

Astronomy

Nov. 27, 2014 Rise Set
Actual Time
Civil Twilight
Nautical Twilight
Astronomical Twilight
Moon
Length of Visible Light
Length of Day
Tomorrow will be .
, % of the Moon is Illuminated

Today's Extremes

State Highs State Lows

Community

WunderPhotos

Upload Photos

1,774,086 photos uploaded!

WunderBlogs® & News

Nearby

Air Quality

  Air Quality AQ Index Pollutant
Not available.

Snow Depth

Station Depth Elevation

Earthquake Activity

City Distance Mag. Time & Date
Minimum magnitude displayed is 2.5.

Coastal Water Temperatures

Place Temperature

Nearby Weather Stations